createdAt,value
2019-05-14T00:00:12.456Z,10.75
2019-05-14T00:02:41.519Z,13.05
2019-05-14T00:05:12.185Z,12.00
2019-05-14T00:07:41.478Z,11.85
2019-05-14T00:10:11.874Z,12.05
2019-05-14T00:12:41.876Z,11.68
2019-05-14T00:15:11.198Z,9.58
2019-05-14T00:17:41.601Z,10.45
2019-05-14T00:20:13.167Z,9.83
2019-05-14T00:22:41.849Z,10.23
2019-05-14T00:25:11.749Z,10.53
2019-05-14T00:27:41.570Z,9.33
2019-05-14T00:30:11.468Z,8.90
2019-05-14T00:32:42.477Z,8.63
2019-05-14T00:35:11.309Z,8.38
2019-05-14T00:37:41.482Z,8.90
2019-05-14T00:40:11.737Z,9.80
2019-05-14T00:42:41.584Z,8.15
2019-05-14T00:45:11.517Z,9.33
2019-05-14T00:47:41.853Z,9.08
2019-05-14T00:50:11.428Z,8.90
2019-05-14T00:52:44.179Z,9.75
2019-05-14T00:55:11.875Z,9.80
2019-05-14T00:57:42.495Z,10.08
2019-05-14T01:00:11.777Z,9.78
2019-05-14T01:02:41.736Z,9.98
2019-05-14T01:05:12.522Z,12.70
2019-05-14T01:07:42.331Z,11.00
2019-05-14T01:10:11.612Z,9.15
2019-05-14T01:12:41.552Z,10.78
2019-05-14T01:15:13.908Z,10.23
2019-05-14T01:17:42.197Z,9.98
2019-05-14T01:20:12.412Z,10.28
2019-05-14T01:22:42.204Z,8.08
2019-05-14T01:25:11.989Z,8.70
2019-05-14T01:27:41.565Z,8.48
2019-05-14T01:30:12.436Z,8.95
2019-05-14T01:32:42.062Z,8.58
2019-05-14T01:35:12.027Z,9.63
2019-05-14T01:37:41.803Z,9.53
2019-05-14T01:40:11.429Z,9.25
2019-05-14T01:42:41.603Z,10.72
2019-05-14T01:45:24.258Z,10.85
2019-05-14T01:47:41.664Z,11.50
2019-05-14T01:50:11.369Z,11.28
2019-05-14T01:52:41.537Z,10.58
2019-05-14T01:55:11.434Z,11.00
2019-05-14T01:57:42.550Z,11.18
2019-05-14T02:00:11.434Z,11.30
2019-05-14T02:02:41.765Z,11.97
2019-05-14T02:05:12.495Z,12.07
2019-05-14T02:07:42.153Z,13.93
2019-05-14T02:10:11.589Z,11.93
2019-05-14T02:12:42.321Z,13.30
2019-05-14T02:15:12.156Z,14.05
2019-05-14T02:17:41.611Z,12.55
2019-05-14T02:20:12.603Z,13.80
2019-05-14T02:22:41.846Z,11.63
2019-05-14T02:25:11.606Z,11.90
2019-05-14T02:27:41.351Z,10.78
2019-05-14T02:30:11.144Z,11.73
2019-05-14T02:32:40.819Z,11.65
2019-05-14T02:35:10.400Z,11.10
2019-05-14T02:37:40.509Z,9.75
2019-05-14T02:40:10.195Z,9.60
2019-05-14T02:42:40.229Z,9.65
2019-05-14T02:45:09.605Z,11.25
2019-05-14T02:47:39.740Z,11.00
2019-05-14T02:50:09.958Z,10.68
2019-05-14T02:52:40.478Z,10.63
2019-05-14T02:55:09.747Z,10.28
2019-05-14T02:57:39.593Z,11.50
2019-05-14T03:00:10.609Z,10.75
2019-05-14T03:02:40.469Z,10.45
2019-05-14T03:05:10.085Z,10.90
2019-05-14T03:07:39.861Z,9.70
2019-05-14T03:10:10.094Z,10.48
2019-05-14T03:12:39.999Z,10.30
2019-05-14T03:15:09.830Z,10.15
2019-05-14T03:17:40.373Z,11.03
2019-05-14T03:20:10.081Z,10.32
2019-05-14T03:22:53.591Z,10.18
2019-05-14T03:25:10.343Z,10.03
2019-05-14T03:27:40.406Z,10.30
2019-05-14T03:30:12.405Z,10.65
2019-05-14T03:32:42.479Z,12.00
2019-05-14T03:35:13.754Z,12.53
2019-05-14T03:37:42.546Z,11.53
2019-05-14T03:40:11.422Z,11.45
2019-05-14T03:42:40.646Z,10.68
2019-05-14T03:45:09.640Z,10.93
2019-05-14T03:47:39.606Z,12.00
2019-05-14T03:50:10.092Z,12.43
2019-05-14T03:52:40.154Z,13.85
2019-05-14T03:55:09.897Z,13.43
2019-05-14T03:57:39.839Z,13.18
2019-05-14T04:00:10.310Z,12.65
2019-05-14T04:02:39.861Z,10.32
2019-05-14T04:05:09.706Z,10.93
2019-05-14T04:07:39.532Z,10.50
2019-05-14T04:10:10.381Z,10.93
2019-05-14T04:12:40.486Z,10.55
2019-05-14T04:15:09.987Z,10.93
2019-05-14T04:17:42.339Z,10.53
2019-05-14T04:20:09.778Z,11.68
2019-05-14T04:22:39.381Z,10.68
2019-05-14T04:25:10.968Z,10.48
2019-05-14T04:27:40.616Z,10.10
2019-05-14T04:30:10.075Z,8.88
2019-05-14T04:32:40.784Z,10.05
2019-05-14T04:35:09.776Z,10.63
2019-05-14T04:37:39.849Z,9.70
2019-05-14T04:40:10.120Z,9.98
2019-05-14T04:42:40.462Z,10.65
2019-05-14T04:45:11.322Z,9.95
2019-05-14T04:47:42.055Z,10.10
2019-05-14T04:50:11.364Z,9.98
2019-05-14T04:52:40.805Z,10.50
2019-05-14T04:55:10.808Z,10.58
2019-05-14T04:57:39.857Z,10.08
2019-05-14T05:00:12.306Z,9.95
2019-05-14T05:02:40.274Z,9.00
2019-05-14T05:05:09.520Z,9.55
2019-05-14T05:07:40.390Z,8.53
2019-05-14T05:10:10.170Z,9.30
2019-05-14T05:12:39.845Z,8.30
2019-05-14T05:15:09.590Z,7.95
2019-05-14T05:17:47.693Z,8.65
2019-05-14T05:20:10.321Z,8.30
2019-05-14T05:22:39.853Z,8.03
2019-05-14T05:25:09.630Z,7.28
2019-05-14T05:27:38.935Z,8.05
2019-05-14T05:30:08.593Z,11.68
2019-05-14T05:32:38.859Z,8.90
2019-05-14T05:35:09.560Z,7.83
2019-05-14T05:37:38.898Z,8.95
2019-05-14T05:40:09.139Z,8.25
2019-05-14T05:42:38.813Z,8.10
2019-05-14T05:45:08.876Z,8.30
2019-05-14T05:47:39.064Z,8.38
2019-05-14T05:50:08.920Z,8.07
2019-05-14T05:52:38.869Z,8.33
2019-05-14T05:55:09.117Z,8.63
2019-05-14T05:57:39.251Z,7.75
2019-05-14T06:00:11.664Z,8.30
2019-05-14T06:02:40.610Z,8.98
2019-05-14T06:05:09.663Z,7.28
2019-05-14T06:07:39.495Z,8.00
2019-05-14T06:10:09.937Z,8.95
2019-05-14T06:12:39.298Z,8.03
2019-05-14T06:15:08.813Z,8.50
2019-05-14T06:17:39.239Z,8.33
2019-05-14T06:20:09.982Z,8.03
2019-05-14T06:22:39.039Z,7.65
2019-05-14T06:25:10.963Z,8.45
2019-05-14T06:30:09.241Z,7.35
2019-05-14T06:35:08.943Z,7.33
2019-05-14T06:37:38.678Z,6.93
2019-05-14T06:40:11.218Z,6.60
2019-05-14T06:42:40.282Z,6.67
2019-05-14T06:45:09.544Z,7.12
2019-05-14T06:47:38.612Z,7.03
2019-05-14T06:50:08.546Z,7.97
2019-05-14T06:52:38.703Z,6.50
2019-05-14T06:55:08.829Z,6.47
2019-05-14T06:57:39.300Z,6.97
2019-05-14T07:00:08.651Z,6.20
2019-05-14T07:02:43.403Z,5.78
2019-05-14T07:07:40.479Z,5.65
2019-05-14T07:10:09.128Z,6.47
2019-05-14T07:12:38.891Z,5.67
2019-05-14T07:15:09.342Z,6.33
2019-05-14T07:17:38.841Z,6.42
2019-05-14T07:20:08.975Z,7.40
2019-05-14T07:22:38.967Z,6.92
2019-05-14T07:25:09.791Z,7.00
2019-05-14T07:27:39.382Z,6.78
2019-05-14T07:30:09.098Z,7.92
2019-05-14T07:32:39.556Z,6.90
2019-05-14T07:35:09.344Z,6.20
2019-05-14T07:37:39.695Z,6.65
2019-05-14T07:40:09.179Z,6.72
2019-05-14T07:42:38.594Z,6.33
2019-05-14T07:45:09.633Z,6.15
2019-05-14T07:47:39.021Z,6.05
2019-05-14T07:50:11.395Z,7.10
2019-05-14T07:52:45.532Z,6.03
2019-05-14T07:55:10.941Z,6.47
2019-05-14T07:57:41.204Z,6.28
2019-05-14T08:00:11.301Z,6.70
2019-05-14T08:02:40.552Z,6.95
2019-05-14T08:05:09.858Z,6.85
2019-05-14T08:07:39.310Z,7.12
2019-05-14T08:10:09.176Z,6.72
2019-05-14T08:12:39.288Z,6.25
2019-05-14T08:15:18.415Z,7.00
2019-05-14T08:17:39.814Z,6.40
2019-05-14T08:20:10.243Z,5.83
2019-05-14T08:22:39.522Z,6.17
2019-05-14T08:25:08.651Z,9.25
2019-05-14T08:27:38.887Z,7.30
2019-05-14T08:30:10.229Z,6.58
2019-05-14T08:32:39.431Z,6.80
2019-05-14T08:35:09.136Z,6.87
2019-05-14T08:37:38.853Z,6.47
2019-05-14T08:40:09.427Z,7.45
2019-05-14T08:42:38.757Z,7.43
2019-05-14T08:45:10.535Z,6.42
2019-05-14T08:47:39.239Z,6.85
2019-05-14T08:50:09.207Z,7.05
2019-05-14T08:52:39.182Z,7.37
2019-05-14T08:55:13.088Z,6.55
2019-05-14T08:57:40.334Z,6.33
2019-05-14T09:00:13.905Z,5.97
2019-05-14T09:02:40.250Z,6.70
2019-05-14T09:05:10.648Z,6.62
2019-05-14T09:07:39.963Z,6.77
2019-05-14T09:10:09.326Z,6.85
2019-05-14T09:12:38.981Z,6.62
2019-05-14T09:15:09.720Z,6.95
2019-05-14T09:17:39.327Z,7.08
2019-05-14T09:20:11.312Z,8.08
2019-05-14T09:22:39.768Z,7.13
2019-05-14T09:25:11.031Z,8.15
2019-05-14T09:27:40.519Z,8.23
2019-05-14T09:30:09.903Z,8.05
2019-05-14T09:32:39.277Z,8.08
2019-05-14T09:35:09.825Z,8.28
2019-05-14T09:37:39.739Z,8.53
2019-05-14T09:40:09.090Z,8.50
2019-05-14T09:42:39.310Z,8.73
2019-05-14T09:45:11.173Z,8.48
2019-05-14T09:47:40.434Z,7.83
2019-05-14T09:50:22.190Z,8.48
2019-05-14T09:52:41.215Z,7.45
2019-05-14T09:55:10.378Z,7.95
2019-05-14T09:57:39.544Z,7.85
2019-05-14T10:00:09.049Z,8.38
2019-05-14T10:02:39.484Z,7.90
2019-05-14T10:05:09.198Z,7.78
2019-05-14T10:07:39.103Z,7.75
2019-05-14T10:10:09.022Z,7.50
2019-05-14T10:12:50.894Z,7.55
2019-05-14T10:15:09.422Z,7.33
2019-05-14T10:17:39.188Z,7.90
2019-05-14T10:20:09.043Z,7.50
2019-05-14T10:22:39.747Z,6.80
2019-05-14T10:25:09.423Z,9.40
2019-05-14T10:27:38.932Z,6.20
2019-05-14T10:30:10.169Z,6.72
2019-05-14T10:32:41.311Z,6.00
2019-05-14T10:35:12.643Z,5.80
2019-05-14T10:37:42.312Z,6.67
2019-05-14T10:40:11.865Z,7.33
2019-05-14T10:42:41.182Z,6.28
2019-05-14T10:45:12.959Z,5.92
2019-05-14T10:47:41.673Z,5.58
2019-05-14T10:50:13.917Z,5.47
2019-05-14T10:52:41.535Z,5.28
2019-05-14T10:55:11.100Z,4.53
2019-05-14T10:57:40.103Z,4.45
2019-05-14T11:00:09.561Z,4.78
2019-05-14T11:02:39.630Z,5.97
2019-05-14T11:05:08.885Z,4.47
2019-05-14T11:07:41.635Z,5.10
2019-05-14T11:10:09.330Z,4.35
2019-05-14T11:12:39.486Z,4.85
2019-05-14T11:15:08.880Z,5.20
2019-05-14T11:17:40.581Z,5.17
2019-05-14T11:20:08.860Z,5.80
2019-05-14T11:22:38.451Z,5.40
2019-05-14T11:25:09.144Z,5.55
2019-05-14T11:27:39.017Z,5.80
2019-05-14T11:30:08.989Z,5.20
2019-05-14T11:32:38.644Z,5.62
2019-05-14T11:35:12.708Z,5.65
2019-05-14T11:37:41.335Z,4.80
2019-05-14T11:40:09.475Z,5.33
2019-05-14T11:42:38.964Z,5.28
2019-05-14T11:45:09.105Z,5.53
2019-05-14T11:47:38.134Z,5.65
2019-05-14T11:50:09.847Z,5.30
2019-05-14T11:52:39.458Z,4.92
2019-05-14T11:55:12.442Z,5.05
2019-05-14T11:57:42.121Z,5.58
2019-05-14T12:00:11.220Z,5.53
2019-05-14T12:02:40.393Z,5.30
2019-05-14T12:05:10.547Z,6.05
2019-05-14T12:07:39.780Z,5.72
2019-05-14T12:10:09.522Z,5.67
2019-05-14T12:12:38.958Z,5.80
2019-05-14T12:15:09.035Z,5.58
2019-05-14T12:17:39.301Z,5.25
2019-05-14T12:20:09.199Z,5.33
2019-05-14T12:22:39.307Z,5.12
2019-05-14T12:25:09.227Z,5.62
2019-05-14T12:27:38.953Z,5.40
2019-05-14T12:30:09.768Z,6.08
2019-05-14T12:32:40.028Z,5.25
2019-05-14T12:35:09.502Z,5.53
2019-05-14T12:37:39.090Z,5.42
2019-05-14T12:40:08.919Z,5.30
2019-05-14T12:42:39.118Z,4.50
2019-05-14T12:45:10.113Z,4.50
2019-05-14T12:47:39.265Z,5.00
2019-05-14T12:50:09.388Z,5.20
2019-05-14T12:52:39.259Z,5.33
2019-05-14T12:55:09.135Z,5.42
2019-05-14T12:57:39.735Z,5.83
2019-05-14T13:00:09.052Z,5.00
2019-05-14T13:02:38.153Z,4.97
2019-05-14T13:05:08.930Z,4.87
2019-05-14T13:07:41.390Z,5.15
2019-05-14T13:10:09.713Z,4.60
2019-05-14T13:12:39.285Z,5.50
2019-05-14T13:15:08.935Z,5.10
2019-05-14T13:17:38.884Z,5.17
2019-05-14T13:20:13.172Z,5.62
2019-05-14T13:22:45.923Z,5.00
2019-05-14T13:25:11.179Z,5.58
2019-05-14T13:27:40.471Z,5.70
2019-05-14T13:30:10.588Z,5.83
2019-05-14T13:32:40.031Z,5.55
2019-05-14T13:35:13.496Z,5.70
2019-05-14T13:37:40.279Z,6.83
2019-05-14T13:40:13.666Z,7.05
2019-05-14T13:42:44.465Z,6.40
2019-05-14T13:45:11.853Z,6.97
2019-05-14T13:47:40.898Z,7.12
2019-05-14T13:50:10.077Z,7.47
2019-05-14T13:52:58.384Z,6.87
2019-05-14T13:55:10.381Z,7.15
2019-05-14T13:57:40.161Z,6.10
2019-05-14T14:00:11.633Z,6.37
2019-05-14T14:02:41.657Z,7.35
2019-05-14T14:05:10.901Z,7.12
2019-05-14T14:07:44.609Z,7.37
2019-05-14T14:10:11.462Z,7.13
2019-05-14T14:12:40.905Z,7.00
2019-05-14T14:15:10.262Z,7.62
2019-05-14T14:17:39.943Z,6.72
2019-05-14T14:20:09.678Z,7.20
2019-05-14T14:22:39.951Z,7.30
2019-05-14T14:25:09.603Z,7.78
2019-05-14T14:27:40.773Z,7.97
2019-05-14T14:30:09.587Z,7.00
2019-05-14T14:32:40.808Z,9.45
2019-05-14T14:35:09.563Z,7.65
2019-05-14T14:37:39.755Z,7.97
2019-05-14T14:40:10.866Z,7.72
2019-05-14T14:42:40.964Z,8.10
2019-05-14T14:45:10.461Z,7.47
2019-05-14T14:47:40.035Z,8.08
2019-05-14T14:50:09.965Z,7.60
2019-05-14T14:52:39.243Z,8.65
2019-05-14T14:55:08.625Z,8.28
2019-05-14T14:57:44.388Z,7.70
2019-05-14T15:00:11.421Z,7.72
2019-05-14T15:02:41.515Z,8.65
2019-05-14T15:05:14.226Z,8.00
2019-05-14T15:08:14.816Z,8.00
2019-05-14T15:10:44.284Z,7.65
2019-05-14T15:13:13.667Z,7.85
2019-05-14T15:15:42.693Z,11.03
2019-05-14T15:18:14.130Z,8.85
2019-05-14T15:20:42.981Z,7.92
2019-05-14T15:23:12.217Z,7.60
2019-05-14T15:25:41.531Z,7.53
2019-05-14T15:28:11.012Z,7.45
2019-05-14T15:30:40.594Z,8.48
2019-05-14T15:33:10.024Z,7.55
2019-05-14T15:35:39.075Z,7.58
2019-05-14T15:38:11.491Z,6.72
2019-05-14T15:40:40.025Z,7.60
2019-05-14T15:43:10.038Z,7.33
2019-05-14T15:45:39.268Z,6.90
2019-05-14T15:48:08.911Z,7.17
2019-05-14T15:50:39.064Z,7.20
2019-05-14T15:53:10.986Z,9.90
2019-05-14T15:55:39.280Z,8.43
2019-05-14T15:58:08.947Z,7.30
2019-05-14T16:00:38.753Z,7.25
2019-05-14T16:03:08.901Z,7.30
2019-05-14T16:05:39.308Z,7.15
2019-05-14T16:08:08.952Z,7.00
2019-05-14T16:10:39.817Z,7.30
2019-05-14T16:13:09.246Z,7.40
2019-05-14T16:15:38.965Z,7.72
2019-05-14T16:18:14.994Z,6.70
2019-05-14T16:20:39.484Z,6.58
2019-05-14T16:23:10.819Z,8.45
2019-05-14T16:25:40.090Z,7.73
2019-05-14T16:28:09.585Z,7.33
2019-05-14T16:30:39.694Z,7.47
2019-05-14T16:33:09.455Z,7.92
2019-05-14T16:35:39.237Z,8.55
2019-05-14T16:38:08.856Z,7.28
2019-05-14T16:40:39.476Z,6.45
2019-05-14T16:43:09.061Z,7.58
2019-05-14T16:45:39.546Z,6.75
2019-05-14T16:48:10.778Z,7.55
2019-05-14T16:50:39.986Z,8.45
2019-05-14T16:53:11.580Z,7.58
2019-05-14T16:55:39.563Z,8.08
2019-05-14T16:58:09.017Z,7.62
2019-05-14T17:00:38.706Z,7.40
2019-05-14T17:03:08.460Z,8.65
2019-05-14T17:05:38.199Z,7.50
2019-05-14T17:08:09.946Z,8.70
2019-05-14T17:10:38.849Z,9.98
2019-05-14T17:13:09.082Z,8.93
2019-05-14T17:15:39.343Z,7.50
2019-05-14T17:18:09.193Z,8.10
2019-05-14T17:20:39.464Z,7.58
2019-05-14T17:23:09.154Z,9.28
2019-05-14T17:25:39.132Z,8.63
2019-05-14T17:28:08.580Z,8.23
2019-05-14T17:30:38.542Z,10.13
2019-05-14T17:33:09.670Z,9.35
2019-05-14T17:35:39.168Z,10.53
2019-05-14T17:38:09.219Z,9.30
2019-05-14T17:40:39.640Z,9.23
2019-05-14T17:43:09.042Z,10.40
2019-05-14T17:45:39.115Z,9.43
2019-05-14T17:48:08.578Z,9.13
2019-05-14T17:50:38.374Z,10.45
2019-05-14T17:53:09.763Z,13.75
2019-05-14T17:55:47.016Z,15.32
2019-05-14T17:58:13.218Z,14.38
2019-05-14T18:00:40.291Z,14.93
2019-05-14T18:03:09.716Z,14.53
2019-05-14T18:05:39.325Z,14.83
2019-05-14T18:08:09.365Z,14.00
2019-05-14T18:10:39.175Z,12.65
2019-05-14T18:13:09.440Z,13.28
2019-05-14T18:15:39.518Z,10.98
2019-05-14T18:18:09.059Z,10.85
2019-05-14T18:20:39.402Z,9.60
2019-05-14T18:23:11.681Z,9.80
2019-05-14T18:25:39.828Z,8.83
2019-05-14T18:28:09.422Z,9.23
2019-05-14T18:30:39.259Z,8.90
2019-05-14T18:33:08.663Z,8.45
2019-05-14T18:35:43.735Z,7.92
2019-05-14T18:38:08.899Z,8.63
2019-05-14T18:40:39.733Z,8.00
2019-05-14T18:43:09.202Z,7.80
2019-05-14T18:45:38.954Z,7.35
2019-05-14T18:48:08.539Z,8.48
2019-05-14T18:50:37.740Z,7.80
2019-05-14T18:53:09.049Z,8.23
2019-05-14T18:55:38.716Z,7.15
2019-05-14T18:58:08.638Z,8.18
2019-05-14T19:00:38.961Z,8.40
2019-05-14T19:03:08.598Z,8.68
2019-05-14T19:05:38.328Z,8.18
2019-05-14T19:08:07.932Z,8.53
2019-05-14T19:10:39.024Z,8.30
2019-05-14T19:13:08.806Z,7.65
2019-05-14T19:15:38.843Z,8.03
2019-05-14T19:18:09.095Z,8.20
2019-05-14T19:20:39.209Z,8.55
2019-05-14T19:23:08.683Z,8.48
2019-05-14T19:25:38.957Z,7.95
2019-05-14T19:28:08.874Z,8.73
2019-05-14T19:30:38.341Z,8.55
2019-05-14T19:33:08.573Z,8.63
2019-05-14T19:35:39.415Z,7.97
2019-05-14T19:38:09.375Z,8.10
2019-05-14T19:40:39.283Z,8.20
2019-05-14T19:43:09.446Z,7.55
2019-05-14T19:45:38.957Z,8.33
2019-05-14T19:48:08.552Z,8.10
2019-05-14T19:50:38.737Z,8.78
2019-05-14T19:53:09.069Z,8.15
2019-05-14T19:55:39.286Z,8.25
2019-05-14T19:58:08.663Z,8.58
2019-05-14T20:00:38.348Z,9.20
2019-05-14T20:03:08.777Z,8.25
2019-05-14T20:05:39.414Z,8.75
2019-05-14T20:08:08.815Z,7.95
2019-05-14T20:10:38.740Z,8.73
2019-05-14T20:13:08.383Z,8.85
2019-05-14T20:15:38.944Z,8.80
2019-05-14T20:18:08.959Z,8.70
2019-05-14T20:20:38.360Z,9.40
2019-05-14T20:23:07.553Z,10.55
2019-05-14T20:25:38.721Z,9.20
2019-05-14T20:28:08.125Z,9.88
2019-05-14T20:30:38.534Z,9.03
2019-05-14T20:33:08.526Z,10.05
2019-05-14T20:35:37.785Z,10.43
2019-05-14T20:38:09.050Z,10.82
2019-05-14T20:40:38.200Z,10.82
2019-05-14T20:43:07.595Z,10.72
2019-05-14T20:45:39.080Z,10.18
2019-05-14T20:48:08.909Z,10.48
2019-05-14T20:50:38.443Z,10.03
2019-05-14T20:53:08.440Z,10.03
2019-05-14T20:55:38.889Z,9.90
2019-05-14T20:58:08.100Z,9.70
2019-05-14T21:00:41.183Z,11.28
2019-05-14T21:03:08.934Z,10.90
2019-05-14T21:05:38.915Z,11.10
2019-05-14T21:08:13.388Z,11.00
2019-05-14T21:10:40.158Z,10.63
2019-05-14T21:13:09.462Z,11.80
2019-05-14T21:15:39.246Z,10.30
2019-05-14T21:18:08.558Z,10.60
2019-05-14T21:20:39.371Z,10.53
2019-05-14T21:23:09.161Z,10.23
2019-05-14T21:25:38.719Z,11.10
2019-05-14T21:28:09.303Z,11.15
2019-05-14T21:30:39.095Z,10.30
2019-05-14T21:33:08.583Z,11.18
2019-05-14T21:35:38.954Z,11.90
2019-05-14T21:38:09.165Z,10.65
2019-05-14T21:40:39.082Z,10.38
2019-05-14T21:43:11.058Z,9.75
2019-05-14T21:45:39.376Z,9.95
2019-05-14T21:48:08.770Z,10.90
2019-05-14T21:50:38.761Z,10.38
2019-05-14T21:53:08.604Z,10.10
2019-05-14T21:55:38.869Z,11.28
2019-05-14T21:58:09.072Z,10.63
2019-05-14T22:00:42.085Z,11.40
2019-05-14T22:05:39.841Z,11.57
2019-05-14T22:08:09.350Z,11.45
2019-05-14T22:10:39.688Z,12.03
2019-05-14T22:13:09.140Z,11.48
2019-05-14T22:15:39.008Z,11.35
2019-05-14T22:18:17.239Z,10.32
2019-05-14T22:20:39.558Z,12.58
2019-05-14T22:23:09.001Z,11.38
2019-05-14T22:25:39.502Z,11.28
2019-05-14T22:28:14.916Z,11.97
2019-05-14T22:30:40.008Z,11.38
2019-05-14T22:33:09.352Z,11.22
2019-05-14T22:35:39.658Z,11.48
2019-05-14T22:38:09.293Z,11.57
2019-05-14T22:40:39.111Z,11.83
2019-05-14T22:43:09.286Z,12.98
2019-05-14T22:45:38.790Z,12.80
2019-05-14T22:48:09.319Z,13.13
2019-05-14T22:50:41.301Z,11.80
2019-05-14T22:53:09.669Z,12.63
2019-05-14T22:55:38.929Z,11.78
2019-05-14T22:58:09.898Z,12.43
2019-05-14T23:00:46.543Z,11.97
2019-05-14T23:03:10.178Z,12.07
2019-05-14T23:05:39.503Z,11.95
2019-05-14T23:08:08.988Z,13.32
2019-05-14T23:10:38.790Z,14.28
2019-05-14T23:13:09.370Z,15.30
2019-05-14T23:15:38.944Z,15.28
2019-05-14T23:18:08.649Z,15.85
2019-05-14T23:20:39.091Z,17.40
2019-05-14T23:23:09.290Z,17.12
2019-05-14T23:25:38.960Z,15.28
2019-05-14T23:28:08.526Z,14.47
2019-05-14T23:30:38.731Z,14.10
2019-05-14T23:33:08.155Z,15.20
2019-05-14T23:35:38.993Z,14.60
2019-05-14T23:38:08.429Z,14.85
2019-05-14T23:40:38.791Z,14.05
2019-05-14T23:43:08.327Z,14.50
2019-05-14T23:45:38.109Z,15.35
2019-05-14T23:48:09.425Z,16.25
2019-05-14T23:50:38.776Z,15.65
2019-05-14T23:53:09.229Z,16.85
2019-05-14T23:55:38.712Z,16.85
2019-05-14T23:58:08.329Z,18.52
